Ohshima Maru — JHAA — position and weather

sailwx.info

Track history (hours):
 
Tides and Currents Weather Stations Pressure Air Temp Water Temp Dewpoint Dewpoint Depression Visibility Wind Speed Wind Dir Waves Ship Positions

Ohshima Maru

Last reported at 2017-Oct-18 03:48 UTC. Time now 2017-Oct-19 00:25 UTC.
Position N 35°39' E 139°46'.

Length 56 m; draft 4.5 m.

Type: Fishing. MMSI: 431832000.

Date/timePositionNaut miles runAvg speedWind from/ knotsBaromVisibWave heightAir tempDewpointWater temp
2017-Oct-18 03:48N 35°39' E 139°46'1 2.3
2017-Oct-18 03:30N 35°39' E 139°46'611.3
2017-Oct-18 03:00N 35°34' E 139°50'510.1
2017-Oct-18 02:29N 35°29' E 139°52'612.0
2017-Oct-18 02:00N 35°25' E 139°47'611.9
2017-Oct-18 01:30N 35°19' E 139°44'510.6
2017-Oct-18 01:00N 35°14' E 139°47'611.5
2017-Oct-18 00:30N 35°09' E 139°47'611.7
2017-Oct-18 00:00N 35°03' E 139°46'  
2017-Oct-13 02:02N 35°06' E 139°25'0 1.0
2017-Oct-13 01:56N 35°06' E 139°25'4 9.7
2017-Oct-13 01:30N 35°08' E 139°30'0 0.6
2017-Oct-13 00:59N 35°08' E 139°30'510.2
2017-Oct-13 00:29N 35°05' E 139°35'612.1
2017-Oct-13 00:00N 35°02' E 139°41'611.6
2017-Oct-12 23:30N 35°01' E 139°48'2 3.9
2017-Oct-12 22:57N 35°00' E 139°51'0 0.0
2017-Oct-12 22:27N 35°00' E 139°51'0 0.0
2017-Oct-12 21:57N 35°00' E 139°51'0 0.0
2017-Oct-12 21:21N 35°00' E 139°51'0 0.0
2017-Oct-12 20:57N 35°00' E 139°51'0 0.0
2017-Oct-12 20:21N 35°00' E 139°51'0 0.0
2017-Oct-12 19:57N 35°00' E 139°51'0 0.0
2017-Oct-12 19:27N 35°00' E 139°51'0 0.0
2017-Oct-12 18:57N 35°00' E 139°51'0 0.1
2017-Oct-12 18:27N 35°00' E 139°51'0 0.0
2017-Oct-12 17:57N 35°00' E 139°51'0 0.0
2017-Oct-12 17:27N 35°00' E 139°51'0 0.0
2017-Oct-12 16:45N 35°00' E 139°51'0 0.0
2017-Oct-12 16:27N 35°00' E 139°51'0 0.0
2017-Oct-12 15:57N 35°00' E 139°51'0 0.1
2017-Oct-12 15:27N 35°00' E 139°51'0 0.0
2017-Oct-12 14:57N 35°00' E 139°51'0 0.0
2017-Oct-12 14:27N 35°00' E 139°51'0 0.0
2017-Oct-12 13:57N 35°00' E 139°51'0 0.0
2017-Oct-12 13:27N 35°00' E 139°51'0 0.0
2017-Oct-12 12:57N 35°00' E 139°51'0 0.0
2017-Oct-12 12:15N 35°00' E 139°51'0 0.0
2017-Oct-12 11:45N 35°00' E 139°51'0 0.0
2017-Oct-12 11:27N 35°00' E 139°51'0 0.0
2017-Oct-12 10:33N 35°00' E 139°51'0 0.1
2017-Oct-12 10:27N 35°00' E 139°51'0 0.0
2017-Oct-12 09:45N 35°00' E 139°51'0 0.0
2017-Oct-12 09:27N 35°00' E 139°51'0 0.0
2017-Oct-12 08:57N 35°00' E 139°51'0 0.0
2017-Oct-12 08:27N 35°00' E 139°51'0 0.0
2017-Oct-12 07:45N 35°00' E 139°51'0 0.0
2017-Oct-12 07:21N 35°00' E 139°51'0 0.0
2017-Oct-12 06:57N 35°00' E 139°51'0 0.1
2017-Oct-12 06:27N 35°00' E 139°51'4 7.9
2017-Oct-12 06:00N 35°03' E 139°47'612.3
2017-Oct-12 05:30N 35°09' E 139°48'611.9
2017-Oct-12 05:00N 35°15' E 139°46'612.3
2017-Oct-12 04:30N 35°20' E 139°43'612.3
2017-Oct-12 04:00N 35°26' E 139°42'3 5.1
2017-Oct-12 03:29N 35°27' E 139°39'0 0.0
2017-Oct-12 02:59N 35°27' E 139°39'0 0.0
2017-Oct-12 02:29N 35°27' E 139°39'0 0.0
2017-Oct-12 01:59N 35°27' E 139°39'0 0.0
2017-Oct-12 01:29N 35°27' E 139°39'30 1.1
2017-Oct-10 21:39N 34°57' E 139°40'211.5
2017-Oct-10 21:30N 34°59' E 139°41'611.7
2017-Oct-10 21:00N 35°01' E 139°48'2 4.0
2017-Oct-10 20:28N 35°01' E 139°50'0 0.1
2017-Oct-10 19:58N 35°01' E 139°50'0 0.0
2017-Oct-10 19:10N 35°01' E 139°50'0 0.0
2017-Oct-10 18:58N 35°01' E 139°50'0 0.0
2017-Oct-10 18:28N 35°01' E 139°50'0 0.0
2017-Oct-10 17:46N 35°01' E 139°50'0 0.0
2017-Oct-10 17:28N 35°01' E 139°50'0 0.1
2017-Oct-10 16:52N 35°01' E 139°50'0 0.0
2017-Oct-10 16:28N 35°01' E 139°50'0 0.0
2017-Oct-10 15:58N 35°01' E 139°50'0 0.0
2017-Oct-10 15:28N 35°01' E 139°50'0 0.0
2017-Oct-10 14:58N 35°01' E 139°50'0 0.0
2017-Oct-10 13:58N 35°01' E 139°50'0 0.0
2017-Oct-10 13:22N 35°01' E 139°50'0 0.0
2017-Oct-10 12:58N 35°01' E 139°50'0 0.0
2017-Oct-10 12:28N 35°01' E 139°50'0 0.0
2017-Oct-10 11:58N 35°01' E 139°50'0 0.0
2017-Oct-10 11:28N 35°01' E 139°50'0 0.0
2017-Oct-10 10:58N 35°01' E 139°50'0 0.0
2017-Oct-10 10:28N 35°01' E 139°50'0 0.1
2017-Oct-10 09:58N 35°01' E 139°50'0 0.0
2017-Oct-10 09:28N 35°01' E 139°50'0 0.0
2017-Oct-10 08:40N 35°01' E 139°50'0 0.0
2017-Oct-10 08:28N 35°01' E 139°50'0 0.0
2017-Oct-10 07:04N 35°01' E 139°50'0 0.0
2017-Oct-10 06:52N 35°01' E 139°50'0 0.0
2017-Oct-10 06:28N 35°01' E 139°50'0 0.0
2017-Oct-10 05:58N 35°01' E 139°50'0 0.0
2017-Oct-10 05:28N 35°01' E 139°50'0 0.0
2017-Oct-10 04:58N 35°01' E 139°50'2 4.5
2017-Oct-10 04:30N 35°01' E 139°48'612.0
2017-Oct-10 04:01N 35°03' E 139°41'612.2
2017-Oct-10 03:30N 35°06' E 139°35'510.8
2017-Oct-10 03:01N 35°08' E 139°29'2 2.3
2017-Oct-10 02:03N 35°10' E 139°27'110.1
2017-Oct-10 02:00N 35°09' E 139°28'2 4.5
2017-Oct-10 01:30N 35°08' E 139°30'1 2.1
2017-Oct-10 01:00N 35°08' E 139°31'611.4
2017-Oct-10 00:30N 35°06' E 139°38'510.7
2017-Oct-10 00:00N 35°04' E 139°44'611.6
2017-Oct-09 23:30N 35°01' E 139°50'1 0.9
2017-Oct-09 22:55N 35°01' E 139°50'0 0.0
2017-Oct-09 22:19N 35°01' E 139°50'0 0.0
2017-Oct-09 21:55N 35°01' E 139°50'0 0.0
2017-Oct-09 21:19N 35°01' E 139°50'0 0.0
2017-Oct-09 20:49N 35°01' E 139°50'0 0.0
2017-Oct-09 20:25N 35°01' E 139°50'0 0.0
2017-Oct-09 19:55N 35°01' E 139°50'0 0.0
2017-Oct-09 19:25N 35°01' E 139°50'0 0.0
2017-Oct-09 18:55N 35°01' E 139°50'0 0.1
2017-Oct-09 18:25N 35°01' E 139°50'0 0.0
2017-Oct-09 17:49N 35°01' E 139°50'0 0.0
2017-Oct-09 17:25N 35°01' E 139°50'0 0.0
2017-Oct-09 16:01N 35°01' E 139°50'0 0.0
2017-Oct-09 15:13N 35°01' E 139°50'0 0.0
2017-Oct-09 14:55N 35°01' E 139°50'0 0.1
2017-Oct-09 14:25N 35°01' E 139°50'0 0.1
2017-Oct-09 13:37N 35°01' E 139°50'0 0.0
2017-Oct-09 13:25N 35°01' E 139°50'0 0.0
2017-Oct-09 12:55N 35°01' E 139°50'0 0.0
2017-Oct-09 12:01N 35°01' E 139°50'0 0.0
2017-Oct-09 11:49N 35°01' E 139°50'0 0.0
2017-Oct-09 11:25N 35°01' E 139°50'0 0.0
2017-Oct-09 10:55N 35°01' E 139°50'0 0.1
2017-Oct-09 10:19N 35°01' E 139°50'0 0.1
2017-Oct-09 09:55N 35°01' E 139°50'0 0.0
2017-Oct-09 08:49N 35°01' E 139°50'0 0.0
2017-Oct-09 07:49N 35°01' E 139°50'0 0.0
2017-Oct-09 07:25N 35°01' E 139°50'0 0.0
2017-Oct-09 06:49N 35°01' E 139°50'0 0.0
2017-Oct-09 06:29N 35°01' E 139°50'3 6.5
2017-Oct-09 06:00N 35°03' E 139°47'612.9
2017-Oct-09 05:30N 35°09' E 139°47'612.3
2017-Oct-09 05:00N 35°15' E 139°47'712.2
2017-Oct-09 04:27N 35°21' E 139°42'7 2.7
2017-Oct-09 02:00N 35°27' E 139°39'0 0.0
2017-Oct-08 21:00N 35°27' E 139°39'0 0.0
2017-Oct-08 20:30N 35°27' E 139°39'0 0.0
2017-Oct-08 20:00N 35°27' E 139°39'0 0.0
2017-Oct-08 19:30N 35°27' E 139°39'0 0.0
2017-Oct-08 19:00N 35°27' E 139°39'0 0.0
2017-Oct-08 18:30N 35°27' E 139°39'0 0.0
2017-Oct-08 18:00N 35°27' E 139°39'0 0.0
2017-Oct-08 17:30N 35°27' E 139°39'0 0.0
2017-Oct-08 17:00N 35°27' E 139°39'0 0.0
2017-Oct-08 16:30N 35°27' E 139°39'0 0.0
2017-Oct-08 16:00N 35°27' E 139°39'0 0.0
2017-Oct-08 15:30N 35°27' E 139°39'0 0.0
2017-Oct-08 15:00N 35°27' E 139°39'0 0.0
2017-Oct-08 14:30N 35°27' E 139°39'0 0.0
2017-Oct-08 14:00N 35°27' E 139°39'0 0.0
2017-Oct-08 13:30N 35°27' E 139°39'0 0.0
2017-Oct-08 13:00N 35°27' E 139°39'0 0.0
2017-Oct-08 12:30N 35°27' E 139°39'0 0.0
2017-Oct-08 12:00N 35°27' E 139°39'0 0.0
2017-Oct-08 11:30N 35°27' E 139°39'0 0.0
2017-Oct-08 11:00N 35°27' E 139°39'0 0.0
2017-Oct-08 10:30N 35°27' E 139°39'0 0.0
2017-Oct-08 10:00N 35°27' E 139°39'0 0.0
2017-Oct-08 09:30N 35°27' E 139°39'0 0.0
2017-Oct-08 09:00N 35°27' E 139°39'0 0.0
2017-Oct-08 08:27N 35°27' E 139°39'0 0.0
2017-Oct-08 08:00N 35°27' E 139°39'0 0.0
2017-Oct-08 07:30N 35°27' E 139°39'0 0.0
2017-Oct-08 07:00N 35°27' E 139°39'0 0.0
2017-Oct-08 06:30N 35°27' E 139°39'0 0.0
2017-Oct-08 06:00N 35°27' E 139°39'0 0.0
2017-Oct-08 05:30N 35°27' E 139°39'0 0.0
2017-Oct-08 05:00N 35°27' E 139°39'0 0.3
2017-Oct-08 04:30N 35°27' E 139°39'3 6.7
2017-Oct-08 04:00N 35°26' E 139°43'  
Track history (hours):
 
Tides and Currents Weather Stations Pressure Air Temp Water Temp Dewpoint Dewpoint Depression Visibility Wind Speed Wind Dir Waves Ship Positions

Ohshima Maru

Last reported at 2017-Oct-18 03:48 UTC. Time now 2017-Oct-19 00:25 UTC.
Position N 35°39' E 139°46'.

Length 56 m; draft 4.5 m.

Type: Fishing. MMSI: 431832000.

Date/timePositionNaut miles runAvg speedWind from/ knotsBaromVisibWave heightAir tempDewpointWater temp
2017-Oct-18 03:48N 35°39' E 139°46'1 2.3
2017-Oct-18 03:30N 35°39' E 139°46'611.3
2017-Oct-18 03:00N 35°34' E 139°50'510.1
2017-Oct-18 02:29N 35°29' E 139°52'612.0
2017-Oct-18 02:00N 35°25' E 139°47'611.9
2017-Oct-18 01:30N 35°19' E 139°44'510.6
2017-Oct-18 01:00N 35°14' E 139°47'611.5
2017-Oct-18 00:30N 35°09' E 139°47'611.7
2017-Oct-18 00:00N 35°03' E 139°46'  
2017-Oct-13 02:02N 35°06' E 139°25'0 1.0
2017-Oct-13 01:56N 35°06' E 139°25'4 9.7
2017-Oct-13 01:30N 35°08' E 139°30'0 0.6
2017-Oct-13 00:59N 35°08' E 139°30'510.2
2017-Oct-13 00:29N 35°05' E 139°35'612.1
2017-Oct-13 00:00N 35°02' E 139°41'611.6
2017-Oct-12 23:30N 35°01' E 139°48'2 3.9
2017-Oct-12 22:57N 35°00' E 139°51'0 0.0
2017-Oct-12 22:27N 35°00' E 139°51'0 0.0
2017-Oct-12 21:57N 35°00' E 139°51'0 0.0
2017-Oct-12 21:21N 35°00' E 139°51'0 0.0
2017-Oct-12 20:57N 35°00' E 139°51'0 0.0
2017-Oct-12 20:21N 35°00' E 139°51'0 0.0
2017-Oct-12 19:57N 35°00' E 139°51'0 0.0
2017-Oct-12 19:27N 35°00' E 139°51'0 0.0
2017-Oct-12 18:57N 35°00' E 139°51'0 0.1
2017-Oct-12 18:27N 35°00' E 139°51'0 0.0
2017-Oct-12 17:57N 35°00' E 139°51'0 0.0
2017-Oct-12 17:27N 35°00' E 139°51'0 0.0
2017-Oct-12 16:45N 35°00' E 139°51'0 0.0
2017-Oct-12 16:27N 35°00' E 139°51'0 0.0
2017-Oct-12 15:57N 35°00' E 139°51'0 0.1
2017-Oct-12 15:27N 35°00' E 139°51'0 0.0
2017-Oct-12 14:57N 35°00' E 139°51'0 0.0
2017-Oct-12 14:27N 35°00' E 139°51'0 0.0
2017-Oct-12 13:57N 35°00' E 139°51'0 0.0
2017-Oct-12 13:27N 35°00' E 139°51'0 0.0
2017-Oct-12 12:57N 35°00' E 139°51'0 0.0
2017-Oct-12 12:15N 35°00' E 139°51'0 0.0
2017-Oct-12 11:45N 35°00' E 139°51'0 0.0
2017-Oct-12 11:27N 35°00' E 139°51'0 0.0
2017-Oct-12 10:33N 35°00' E 139°51'0 0.1
2017-Oct-12 10:27N 35°00' E 139°51'0 0.0
2017-Oct-12 09:45N 35°00' E 139°51'0 0.0
2017-Oct-12 09:27N 35°00' E 139°51'0 0.0
2017-Oct-12 08:57N 35°00' E 139°51'0 0.0
2017-Oct-12 08:27N 35°00' E 139°51'0 0.0
2017-Oct-12 07:45N 35°00' E 139°51'0 0.0
2017-Oct-12 07:21N 35°00' E 139°51'0 0.0
2017-Oct-12 06:57N 35°00' E 139°51'0 0.1
2017-Oct-12 06:27N 35°00' E 139°51'4 7.9
2017-Oct-12 06:00N 35°03' E 139°47'612.3
2017-Oct-12 05:30N 35°09' E 139°48'611.9
2017-Oct-12 05:00N 35°15' E 139°46'612.3
2017-Oct-12 04:30N 35°20' E 139°43'612.3
2017-Oct-12 04:00N 35°26' E 139°42'3 5.1
2017-Oct-12 03:29N 35°27' E 139°39'0 0.0
2017-Oct-12 02:59N 35°27' E 139°39'0 0.0
2017-Oct-12 02:29N 35°27' E 139°39'0 0.0
2017-Oct-12 01:59N 35°27' E 139°39'0 0.0
2017-Oct-12 01:29N 35°27' E 139°39'30 1.1
2017-Oct-10 21:39N 34°57' E 139°40'211.5
2017-Oct-10 21:30N 34°59' E 139°41'611.7
2017-Oct-10 21:00N 35°01' E 139°48'2 4.0
2017-Oct-10 20:28N 35°01' E 139°50'0 0.1
2017-Oct-10 19:58N 35°01' E 139°50'0 0.0
2017-Oct-10 19:10N 35°01' E 139°50'0 0.0
2017-Oct-10 18:58N 35°01' E 139°50'0 0.0
2017-Oct-10 18:28N 35°01' E 139°50'0 0.0
2017-Oct-10 17:46N 35°01' E 139°50'0 0.0
2017-Oct-10 17:28N 35°01' E 139°50'0 0.1
2017-Oct-10 16:52N 35°01' E 139°50'0 0.0
2017-Oct-10 16:28N 35°01' E 139°50'0 0.0
2017-Oct-10 15:58N 35°01' E 139°50'0 0.0
2017-Oct-10 15:28N 35°01' E 139°50'0 0.0
2017-Oct-10 14:58N 35°01' E 139°50'0 0.0
2017-Oct-10 13:58N 35°01' E 139°50'0 0.0
2017-Oct-10 13:22N 35°01' E 139°50'0 0.0
2017-Oct-10 12:58N 35°01' E 139°50'0 0.0
2017-Oct-10 12:28N 35°01' E 139°50'0 0.0
2017-Oct-10 11:58N 35°01' E 139°50'0 0.0
2017-Oct-10 11:28N 35°01' E 139°50'0 0.0
2017-Oct-10 10:58N 35°01' E 139°50'0 0.0
2017-Oct-10 10:28N 35°01' E 139°50'0 0.1
2017-Oct-10 09:58N 35°01' E 139°50'0 0.0
2017-Oct-10 09:28N 35°01' E 139°50'0 0.0
2017-Oct-10 08:40N 35°01' E 139°50'0 0.0
2017-Oct-10 08:28N 35°01' E 139°50'0 0.0
2017-Oct-10 07:04N 35°01' E 139°50'0 0.0
2017-Oct-10 06:52N 35°01' E 139°50'0 0.0
2017-Oct-10 06:28N 35°01' E 139°50'0 0.0
2017-Oct-10 05:58N 35°01' E 139°50'0 0.0
2017-Oct-10 05:28N 35°01' E 139°50'0 0.0
2017-Oct-10 04:58N 35°01' E 139°50'2 4.5
2017-Oct-10 04:30N 35°01' E 139°48'612.0
2017-Oct-10 04:01N 35°03' E 139°41'612.2
2017-Oct-10 03:30N 35°06' E 139°35'510.8
2017-Oct-10 03:01N 35°08' E 139°29'2 2.3
2017-Oct-10 02:03N 35°10' E 139°27'110.1
2017-Oct-10 02:00N 35°09' E 139°28'2 4.5
2017-Oct-10 01:30N 35°08' E 139°30'1 2.1
2017-Oct-10 01:00N 35°08' E 139°31'611.4
2017-Oct-10 00:30N 35°06' E 139°38'510.7
2017-Oct-10 00:00N 35°04' E 139°44'611.6
2017-Oct-09 23:30N 35°01' E 139°50'1 0.9
2017-Oct-09 22:55N 35°01' E 139°50'0 0.0
2017-Oct-09 22:19N 35°01' E 139°50'0 0.0
2017-Oct-09 21:55N 35°01' E 139°50'0 0.0
2017-Oct-09 21:19N 35°01' E 139°50'0 0.0
2017-Oct-09 20:49N 35°01' E 139°50'0 0.0
2017-Oct-09 20:25N 35°01' E 139°50'0 0.0
2017-Oct-09 19:55N 35°01' E 139°50'0 0.0
2017-Oct-09 19:25N 35°01' E 139°50'0 0.0
2017-Oct-09 18:55N 35°01' E 139°50'0 0.1
2017-Oct-09 18:25N 35°01' E 139°50'0 0.0
2017-Oct-09 17:49N 35°01' E 139°50'0 0.0
2017-Oct-09 17:25N 35°01' E 139°50'0 0.0
2017-Oct-09 16:01N 35°01' E 139°50'0 0.0
2017-Oct-09 15:13N 35°01' E 139°50'0 0.0
2017-Oct-09 14:55N 35°01' E 139°50'0 0.1
2017-Oct-09 14:25N 35°01' E 139°50'0 0.1
2017-Oct-09 13:37N 35°01' E 139°50'0 0.0
2017-Oct-09 13:25N 35°01' E 139°50'0 0.0
2017-Oct-09 12:55N 35°01' E 139°50'0 0.0
2017-Oct-09 12:01N 35°01' E 139°50'0 0.0
2017-Oct-09 11:49N 35°01' E 139°50'0 0.0
2017-Oct-09 11:25N 35°01' E 139°50'0 0.0
2017-Oct-09 10:55N 35°01' E 139°50'0 0.1
2017-Oct-09 10:19N 35°01' E 139°50'0 0.1
2017-Oct-09 09:55N 35°01' E 139°50'0 0.0
2017-Oct-09 08:49N 35°01' E 139°50'0 0.0
2017-Oct-09 07:49N 35°01' E 139°50'0 0.0
2017-Oct-09 07:25N 35°01' E 139°50'0 0.0
2017-Oct-09 06:49N 35°01' E 139°50'0 0.0
2017-Oct-09 06:29N 35°01' E 139°50'3 6.5
2017-Oct-09 06:00N 35°03' E 139°47'612.9
2017-Oct-09 05:30N 35°09' E 139°47'612.3
2017-Oct-09 05:00N 35°15' E 139°47'712.2
2017-Oct-09 04:27N 35°21' E 139°42'7 2.7
2017-Oct-09 02:00N 35°27' E 139°39'0 0.0
2017-Oct-08 21:00N 35°27' E 139°39'0 0.0
2017-Oct-08 20:30N 35°27' E 139°39'0 0.0
2017-Oct-08 20:00N 35°27' E 139°39'0 0.0
2017-Oct-08 19:30N 35°27' E 139°39'0 0.0
2017-Oct-08 19:00N 35°27' E 139°39'0 0.0
2017-Oct-08 18:30N 35°27' E 139°39'0 0.0
2017-Oct-08 18:00N 35°27' E 139°39'0 0.0
2017-Oct-08 17:30N 35°27' E 139°39'0 0.0
2017-Oct-08 17:00N 35°27' E 139°39'0 0.0
2017-Oct-08 16:30N 35°27' E 139°39'0 0.0
2017-Oct-08 16:00N 35°27' E 139°39'0 0.0
2017-Oct-08 15:30N 35°27' E 139°39'0 0.0
2017-Oct-08 15:00N 35°27' E 139°39'0 0.0
2017-Oct-08 14:30N 35°27' E 139°39'0 0.0
2017-Oct-08 14:00N 35°27' E 139°39'0 0.0
2017-Oct-08 13:30N 35°27' E 139°39'0 0.0
2017-Oct-08 13:00N 35°27' E 139°39'0 0.0
2017-Oct-08 12:30N 35°27' E 139°39'0 0.0
2017-Oct-08 12:00N 35°27' E 139°39'0 0.0
2017-Oct-08 11:30N 35°27' E 139°39'0 0.0
2017-Oct-08 11:00N 35°27' E 139°39'0 0.0
2017-Oct-08 10:30N 35°27' E 139°39'0 0.0
2017-Oct-08 10:00N 35°27' E 139°39'0 0.0
2017-Oct-08 09:30N 35°27' E 139°39'0 0.0
2017-Oct-08 09:00N 35°27' E 139°39'0 0.0
2017-Oct-08 08:27N 35°27' E 139°39'0 0.0
2017-Oct-08 08:00N 35°27' E 139°39'0 0.0
2017-Oct-08 07:30N 35°27' E 139°39'0 0.0
2017-Oct-08 07:00N 35°27' E 139°39'0 0.0
2017-Oct-08 06:30N 35°27' E 139°39'0 0.0
2017-Oct-08 06:00N 35°27' E 139°39'0 0.0
2017-Oct-08 05:30N 35°27' E 139°39'0 0.0
2017-Oct-08 05:00N 35°27' E 139°39'0 0.3
2017-Oct-08 04:30N 35°27' E 139°39'3 6.7
2017-Oct-08 04:00N 35°26' E 139°43'  

Dump ship's entire track history